Time;durP1;ratioP1;P1;durP2;ratioP2;P2;SDS_P1;SDS_P2;PMS_P1;PMS_P2;Temp;Humidity;BMP_temperature;BMP_pressure;BME280_temperature;BME280_humidity;BME280_pressure;Samples;Min_cycle;Max_cycle;Signal;HPM_P1;HPM_P2
2023/04/30 00:02:17;;;;;;;7.53;5.40;;;13.90;75.40;;;;;;4996619;28;20371;-63
2023/04/30 00:04:43;;;;;;;7.28;5.40;;;13.90;75.50;;;;;;4994260;28;20529;-63
2023/04/30 00:07:08;;;;;;;7.03;5.05;;;13.80;75.40;;;;;;4998691;28;20057;-63
2023/04/30 00:09:34;;;;;;;6.07;5.10;;;13.70;75.70;;;;;;4994377;28;20034;-63
2023/04/30 00:11:59;;;;;;;6.78;4.88;;;13.70;75.70;;;;;;4995988;28;20026;-63
2023/04/30 00:14:25;;;;;;;5.13;4.55;;;13.70;75.80;;;;;;4994531;28;20437;-63
2023/04/30 00:16:51;;;;;;;5.82;4.95;;;13.70;76.00;;;;;;4992664;28;20073;-63
2023/04/30 00:19:16;;;;;;;6.63;4.85;;;13.70;76.10;;;;;;4994118;28;20045;-63
2023/04/30 00:21:42;;;;;;;5.15;4.43;;;13.70;76.10;;;;;;4999491;28;20505;-63
2023/04/30 00:24:07;;;;;;;6.50;5.25;;;13.70;76.20;;;;;;4997166;28;20040;-63
2023/04/30 00:26:33;;;;;;;6.43;4.68;;;13.70;76.10;;;;;;4993562;28;20039;-64
2023/04/30 00:28:58;;;;;;;5.80;4.72;;;13.70;76.20;;;;;;4994726;28;20546;-63
2023/04/30 00:31:24;;;;;;;6.53;4.80;;;13.70;76.20;;;;;;4992507;28;20113;-63
2023/04/30 00:33:50;;;;;;;5.57;4.53;;;13.70;76.30;;;;;;4994492;28;20346;-63
2023/04/30 00:36:16;;;;;;;5.47;4.70;;;13.70;76.30;;;;;;4993633;28;20038;-63
2023/04/30 00:38:41;;;;;;;5.15;4.60;;;13.70;76.30;;;;;;5010056;28;20387;-62
2023/04/30 00:41:07;;;;;;;6.03;5.00;;;13.70;76.30;;;;;;5009231;28;20064;-63
2023/04/30 00:43:33;;;;;;;6.70;4.53;;;13.70;76.30;;;;;;4993217;28;20501;-63
2023/04/30 00:45:58;;;;;;;5.53;5.00;;;13.70;76.30;;;;;;4995077;28;20332;-63
2023/04/30 00:48:25;;;;;;;7.50;4.68;;;13.70;76.60;;;;;;4995314;28;20030;-63
2023/04/30 00:50:51;;;;;;;5.30;4.78;;;13.70;76.30;;;;;;4995967;28;20034;-63
2023/04/30 00:53:16;;;;;;;5.70;4.90;;;13.60;76.30;;;;;;4994364;28;20452;-63
2023/04/30 00:55:43;;;;;;;5.30;4.63;;;13.60;76.40;;;;;;4993044;28;20088;-63
2023/04/30 00:58:08;;;;;;;5.60;4.97;;;13.60;76.60;;;;;;4995564;28;20516;-63
2023/04/30 01:00:35;;;;;;;5.85;4.70;;;13.50;76.70;;;;;;4994013;28;20030;-63
2023/04/30 01:03:01;;;;;;;6.43;4.97;;;13.50;76.70;;;;;;4994184;28;20031;-63
2023/04/30 01:05:26;;;;;;;5.78;4.88;;;13.50;76.80;;;;;;4989008;28;20030;-63
2023/04/30 01:07:54;;;;;;;6.20;4.70;;;13.50;77.00;;;;;;4993077;28;20037;-63
2023/04/30 01:10:27;;;;;;;5.32;4.47;;;13.50;77.20;;;;;;4996370;28;20076;-63
2023/04/30 01:13:10;;;;;;;6.60;5.07;;;13.50;77.20;;;;;;4992365;28;20557;-64
2023/04/30 01:16:05;;;;;;;5.45;4.40;;;13.50;77.30;;;;;;4995222;28;20030;-63
2023/04/30 01:18:34;;;;;;;;;;;13.40;77.80;;;;;;4993970;28;20042;-63
2023/04/30 01:21:04;;;;;;;5.13;4.32;;;13.40;77.80;;;;;;4991132;28;19913;-63
2023/04/30 01:23:49;;;;;;;6.65;4.47;;;13.40;77.10;;;;;;4993340;28;20061;-63
2023/04/30 01:26:27;;;;;;;5.70;4.43;;;13.40;77.80;;;;;;4990497;28;20239;-64
2023/04/30 01:28:53;;;;;;;5.22;4.72;;;13.40;77.40;;;;;;4991595;28;20148;-63
2023/04/30 01:31:19;;;;;;;6.07;5.03;;;13.30;77.30;;;;;;4992102;28;20030;-63
2023/04/30 01:33:45;;;;;;;4.97;4.32;;;13.30;77.40;;;;;;4991066;28;20041;-63
2023/04/30 01:36:38;;;;;;;5.43;4.72;;;13.30;77.50;;;;;;4991894;28;20581;-63
2023/04/30 01:39:31;;;;;;;5.15;4.65;;;13.30;78.60;;;;;;4993068;28;20073;-63
2023/04/30 01:42:04;;;;;;;4.90;4.40;;;13.30;78.00;;;;;;4995018;28;20030;-63
2023/04/30 01:44:47;;;;;;;5.03;4.25;;;13.30;77.70;;;;;;4993338;28;20066;-63
2023/04/30 01:47:28;;;;;;;5.57;4.88;;;13.30;77.70;;;;;;4992994;28;20494;-63
2023/04/30 01:50:38;;;;;;;5.00;4.50;;;13.30;78.60;;;;;;4990585;28;20042;-63
2023/04/30 01:53:08;;;;;;;4.80;4.35;;;13.30;77.80;;;;;;5013031;28;20034;-63
2023/04/30 01:55:35;;;;;;;6.47;4.57;;;13.30;77.40;;;;;;5016579;28;20275;-63
2023/04/30 01:58:06;;;;;;;4.55;4.15;;;13.30;77.30;;;;;;5015872;28;20459;-63
2023/04/30 02:00:32;;;;;;;5.60;4.63;;;13.20;77.40;;;;;;5013926;28;20091;-63
2023/04/30 02:02:58;;;;;;;5.30;4.80;;;13.20;77.40;;;;;;5015278;28;20068;-63
2023/04/30 02:05:25;;;;;;;4.50;4.10;;;13.20;77.30;;;;;;5015787;28;20584;-63
2023/04/30 02:07:51;;;;;;;5.18;4.65;;;13.30;77.40;;;;;;5014982;28;20455;-61
2023/04/30 02:10:20;;;;;;;4.78;4.30;;;13.20;77.40;;;;;;5015686;28;20030;-62
2023/04/30 02:12:45;;;;;;;4.78;4.38;;;13.20;77.30;;;;;;5013093;28;20699;-63
2023/04/30 02:15:11;;;;;;;5.43;4.47;;;13.20;77.20;;;;;;5011707;28;20034;-63
2023/04/30 02:17:37;;;;;;;4.97;4.35;;;13.10;77.20;;;;;;5012289;28;20037;-63
2023/04/30 02:20:03;;;;;;;5.07;4.50;;;13.10;77.10;;;;;;5017084;28;20038;-63
2023/04/30 02:22:29;;;;;;;6.85;4.35;;;13.10;77.20;;;;;;5013134;28;20053;-64
2023/04/30 02:24:56;;;;;;;4.88;4.35;;;13.10;77.20;;;;;;5012729;28;20096;-63
2023/04/30 02:27:23;;;;;;;4.68;4.28;;;13.00;77.20;;;;;;5011286;28;20128;-63
2023/04/30 02:29:49;;;;;;;4.50;4.10;;;13.00;77.30;;;;;;5013566;28;21948;-63
2023/04/30 02:32:15;;;;;;;5.18;4.63;;;13.00;77.30;;;;;;5012471;28;20041;-63
2023/04/30 02:34:41;;;;;;;5.35;4.85;;;12.90;77.40;;;;;;5016560;28;20329;-63
2023/04/30 02:37:07;;;;;;;5.00;4.50;;;12.90;77.50;;;;;;5014932;28;20041;-63
2023/04/30 02:39:33;;;;;;;5.78;5.07;;;12.90;77.70;;;;;;5016280;28;20291;-62
2023/04/30 02:41:58;;;;;;;5.28;4.78;;;12.80;77.80;;;;;;5016627;28;20055;-63
2023/04/30 02:44:25;;;;;;;5.80;4.57;;;12.80;78.00;;;;;;5015908;28;20041;-63
2023/04/30 02:46:51;;;;;;;5.20;4.65;;;12.80;78.20;;;;;;5013694;28;20136;-63
2023/04/30 02:49:16;;;;;;;5.90;5.30;;;12.70;78.30;;;;;;5014219;28;20599;-63
2023/04/30 02:51:42;;;;;;;5.07;4.57;;;12.70;78.40;;;;;;5019713;28;20128;-63
2023/04/30 02:54:08;;;;;;;6.00;4.70;;;12.70;78.40;;;;;;5016088;28;20041;-62
2023/04/30 02:56:33;;;;;;;5.22;4.70;;;12.70;78.60;;;;;;5015888;28;20254;-63
2023/04/30 02:58:59;;;;;;;7.05;4.80;;;12.70;78.70;;;;;;5016529;28;20460;-63
2023/04/30 03:01:25;;;;;;;5.68;4.63;;;12.70;78.70;;;;;;5016077;28;20044;-63
2023/04/30 03:03:51;;;;;;;5.68;4.68;;;12.70;78.80;;;;;;5017374;28;20385;-62
2023/04/30 03:06:17;;;;;;;6.82;5.32;;;12.70;78.70;;;;;;5017317;28;20454;-63
2023/04/30 03:08:42;;;;;;;5.05;4.55;;;12.70;78.90;;;;;;5017364;28;20474;-63
2023/04/30 03:11:08;;;;;;;5.75;5.10;;;12.70;78.90;;;;;;5016417;28;20041;-63
2023/04/30 03:13:33;;;;;;;5.90;4.70;;;12.70;79.00;;;;;;5017344;28;20049;-63
2023/04/30 03:16:00;;;;;;;6.45;5.07;;;12.70;79.00;;;;;;5012964;28;20114;-63
2023/04/30 03:18:27;;;;;;;5.35;4.75;;;12.70;79.10;;;;;;5016528;28;20080;-63
2023/04/30 03:20:53;;;;;;;6.22;5.45;;;12.70;79.10;;;;;;5016496;28;20037;-63
2023/04/30 03:23:18;;;;;;;6.72;5.28;;;12.60;79.00;;;;;;5014818;28;20226;-63
2023/04/30 03:25:44;;;;;;;6.25;5.07;;;12.60;79.10;;;;;;5015591;28;20037;-63
2023/04/30 03:28:09;;;;;;;7.30;5.70;;;12.60;79.10;;;;;;5015978;28;20080;-63
2023/04/30 03:30:35;;;;;;;6.00;5.10;;;12.60;79.10;;;;;;5010747;28;20823;-63
2023/04/30 03:33:00;;;;;;;6.38;5.63;;;12.50;79.10;;;;;;5016476;28;20034;-63
2023/04/30 03:35:26;;;;;;;5.93;5.07;;;12.50;79.10;;;;;;5016856;28;20038;-63
2023/04/30 03:37:52;;;;;;;6.15;5.28;;;12.50;79.20;;;;;;5015736;28;20029;-63
2023/04/30 03:40:17;;;;;;;7.47;5.28;;;12.50;80.10;;;;;;5014149;28;20099;-63
2023/04/30 03:42:43;;;;;;;6.80;5.97;;;12.50;79.30;;;;;;5014985;28;20079;-63
2023/04/30 03:45:09;;;;;;;6.80;5.53;;;12.50;79.40;;;;;;5013329;28;20049;-63
2023/04/30 03:47:35;;;;;;;8.55;5.80;;;12.50;79.50;;;;;;5015697;28;20069;-63
2023/04/30 03:50:02;;;;;;;6.60;5.57;;;12.40;79.40;;;;;;5015603;28;20037;-63
2023/04/30 03:52:28;;;;;;;6.95;6.00;;;12.40;79.40;;;;;;5015265;28;20051;-62
2023/04/30 03:54:53;;;;;;;7.53;6.10;;;12.40;79.60;;;;;;5017400;28;20050;-63
2023/04/30 03:57:20;;;;;;;7.63;5.90;;;12.30;79.60;;;;;;5016312;28;20119;-63
2023/04/30 03:59:46;;;;;;;6.70;5.75;;;12.30;79.70;;;;;;5016124;28;20509;-62
2023/04/30 04:02:12;;;;;;;8.00;5.93;;;12.30;79.80;;;;;;5015010;28;20136;-63
2023/04/30 04:04:38;;;;;;;7.43;5.88;;;12.30;79.80;;;;;;5016173;28;20494;-63
2023/04/30 04:07:06;;;;;;;7.53;5.82;;;12.30;79.90;;;;;;5016248;28;20041;-63
2023/04/30 04:09:32;;;;;;;6.93;5.80;;;12.30;80.00;;;;;;5017782;28;20041;-63
2023/04/30 04:11:57;;;;;;;7.55;6.13;;;12.30;80.00;;;;;;5014372;28;20041;-63
2023/04/30 04:14:23;;;;;;;7.65;6.05;;;12.30;80.10;;;;;;5015194;28;20045;-63
2023/04/30 04:16:49;;;;;;;7.07;5.97;;;12.20;80.00;;;;;;5013368;28;20493;-63
2023/04/30 04:19:14;;;;;;;7.80;6.20;;;12.30;80.10;;;;;;5015081;28;20561;-63
2023/04/30 04:21:40;;;;;;;9.35;6.68;;;12.20;80.10;;;;;;5013983;28;20052;-63
2023/04/30 04:24:07;;;;;;;7.20;6.13;;;12.30;80.30;;;;;;5013171;28;20413;-63
2023/04/30 04:26:36;;;;;;;7.82;6.78;;;12.20;80.20;;;;;;5014607;28;20048;-64
2023/04/30 04:29:08;;;;;;;8.80;6.70;;;12.30;80.40;;;;;;5013868;28;20211;-63
2023/04/30 04:31:33;;;;;;;7.90;6.53;;;12.30;80.40;;;;;;5013926;28;20397;-63
2023/04/30 04:34:03;;;;;;;10.25;6.75;;;12.20;80.30;;;;;;5014187;28;20037;-63
2023/04/30 04:36:29;;;;;;;8.95;6.75;;;12.20;80.30;;;;;;5014255;28;20119;-63
2023/04/30 04:39:01;;;;;;;8.88;6.78;;;12.30;80.50;;;;;;5011728;28;20049;-63
2023/04/30 04:41:27;;;;;;;8.68;6.65;;;12.30;80.70;;;;;;5016066;28;20564;-63
2023/04/30 04:43:53;;;;;;;8.02;6.75;;;12.20;80.60;;;;;;5012325;28;20513;-63
2023/04/30 04:46:19;;;;;;;10.45;7.03;;;12.30;80.70;;;;;;5012655;28;20044;-62
2023/04/30 04:48:45;;;;;;;9.27;7.07;;;12.30;80.80;;;;;;5015282;28;20041;-63
2023/04/30 04:51:11;;;;;;;9.32;6.32;;;12.20;80.70;;;;;;5012881;28;20072;-62
2023/04/30 04:53:37;;;;;;;9.13;7.50;;;12.30;80.80;;;;;;5013491;28;20116;-63
2023/04/30 04:56:03;;;;;;;9.23;7.20;;;12.30;80.80;;;;;;5014096;28;20045;-62
2023/04/30 04:58:28;;;;;;;8.90;7.15;;;12.30;80.80;;;;;;5013503;28;20034;-63
2023/04/30 05:00:54;;;;;;;8.85;6.53;;;12.30;80.80;;;;;;5013730;28;20402;-62
2023/04/30 05:03:19;;;;;;;10.35;7.10;;;12.30;80.80;;;;;;5012057;28;20029;-63
2023/04/30 05:05:45;;;;;;;9.38;7.00;;;12.30;80.80;;;;;;5011764;28;20248;-62
2023/04/30 05:08:11;;;;;;;8.85;7.28;;;12.30;81.00;;;;;;5011933;28;20030;-62
2023/04/30 05:10:37;;;;;;;10.65;7.47;;;12.30;81.20;;;;;;5017466;28;20037;-63
2023/04/30 05:13:02;;;;;;;9.73;7.43;;;12.30;81.10;;;;;;5015242;28;20054;-63
2023/04/30 05:15:28;;;;;;;10.18;7.18;;;12.30;81.00;;;;;;5011668;28;20030;-62
2023/04/30 05:17:54;;;;;;;10.52;6.95;;;12.30;81.20;;;;;;5012292;28;20045;-64
2023/04/30 05:20:20;;;;;;;9.15;7.45;;;12.30;81.20;;;;;;5013894;28;20125;-63
2023/04/30 05:22:45;;;;;;;10.23;7.28;;;12.30;81.20;;;;;;5013469;28;20088;-63
2023/04/30 05:25:11;;;;;;;9.77;7.38;;;12.40;81.20;;;;;;5013321;28;20111;-63
2023/04/30 05:27:36;;;;;;;9.93;7.47;;;12.40;81.20;;;;;;5012572;28;20080;-62
2023/04/30 05:30:03;;;;;;;8.80;7.13;;;12.40;81.30;;;;;;5013318;28;20738;-62
2023/04/30 05:32:28;;;;;;;10.52;7.90;;;12.40;81.20;;;;;;5013593;28;20423;-63
2023/04/30 05:34:54;;;;;;;9.50;7.28;;;12.40;81.20;;;;;;5012757;28;20352;-64
2023/04/30 05:37:21;;;;;;;9.73;7.38;;;12.50;81.30;;;;;;5013808;28;20116;-62
2023/04/30 05:39:47;;;;;;;10.27;7.68;;;12.50;81.40;;;;;;5013218;28;20715;-63
2023/04/30 05:42:13;;;;;;;9.65;7.93;;;12.50;81.30;;;;;;5013063;28;20038;-63
2023/04/30 05:44:40;;;;;;;9.20;7.32;;;12.50;81.20;;;;;;5011730;28;20061;-63
2023/04/30 05:47:05;;;;;;;9.45;7.40;;;12.50;81.30;;;;;;5011586;28;20185;-63
2023/04/30 05:49:31;;;;;;;9.85;7.32;;;12.60;81.20;;;;;;5011602;28;20038;-63
2023/04/30 05:51:56;;;;;;;11.43;7.85;;;12.60;81.20;;;;;;5017516;28;20086;-63
2023/04/30 05:54:22;;;;;;;10.50;7.95;;;12.60;81.20;;;;;;5014236;28;20044;-63
2023/04/30 05:56:48;;;;;;;10.20;7.82;;;12.60;81.20;;;;;;5013201;28;20044;-63
2023/04/30 05:59:13;;;;;;;8.95;7.18;;;12.70;81.30;;;;;;5017163;28;20033;-62
2023/04/30 06:01:39;;;;;;;8.98;6.90;;;12.70;81.30;;;;;;5016728;28;20034;-63
2023/04/30 06:04:04;;;;;;;9.52;7.32;;;12.70;81.30;;;;;;5015864;28;20036;-63
2023/04/30 06:06:33;;;;;;;9.25;7.43;;;12.70;81.30;;;;;;5015623;28;20033;-63
2023/04/30 06:08:58;;;;;;;11.45;7.50;;;12.70;81.20;;;;;;5020520;28;20037;-63
2023/04/30 06:11:27;;;;;;;8.23;6.60;;;12.80;81.10;;;;;;5018953;28;20544;-63
2023/04/30 06:13:52;;;;;;;10.13;7.55;;;12.80;81.00;;;;;;5017467;28;20040;-62
2023/04/30 06:16:18;;;;;;;9.70;7.72;;;12.90;81.00;;;;;;5017973;28;20038;-63
2023/04/30 06:18:44;;;;;;;9.45;7.18;;;12.90;81.00;;;;;;5014983;28;20034;-63
2023/04/30 06:21:09;;;;;;;8.85;7.30;;;12.90;81.50;;;;;;5000119;28;20048;-61
2023/04/30 06:23:36;;;;;;;9.90;7.82;;;12.90;80.60;;;;;;5014635;28;20065;-63
2023/04/30 06:26:02;;;;;;;9.23;6.85;;;13.00;80.60;;;;;;5010698;28;20038;-62
2023/04/30 06:28:27;;;;;;;9.00;7.47;;;13.00;80.50;;;;;;5013470;28;20318;-59
2023/04/30 06:30:54;;;;;;;9.00;7.05;;;13.00;80.50;;;;;;5014174;28;20176;-62
2023/04/30 06:33:20;;;;;;;9.13;7.78;;;13.00;80.50;;;;;;5011349;28;20033;-62
2023/04/30 06:35:46;;;;;;;7.63;6.82;;;13.00;80.50;;;;;;5007682;28;20037;-63
2023/04/30 06:38:12;;;;;;;8.93;6.82;;;13.10;80.50;;;;;;5012639;28;20037;-63
2023/04/30 06:40:38;;;;;;;7.60;6.55;;;13.10;80.50;;;;;;5006599;28;20064;-63
2023/04/30 06:43:03;;;;;;;8.32;7.03;;;13.20;80.50;;;;;;5014074;28;20413;-63
2023/04/30 06:45:29;;;;;;;7.95;6.32;;;13.20;80.30;;;;;;5008231;28;20037;-63
2023/04/30 06:47:55;;;;;;;7.85;6.68;;;13.20;80.40;;;;;;5013972;28;20130;-63
2023/04/30 06:50:20;;;;;;;8.77;6.97;;;13.20;80.30;;;;;;5011190;28;20623;-63
2023/04/30 06:52:46;;;;;;;8.48;6.22;;;13.30;80.00;;;;;;5011813;28;20042;-63
2023/04/30 06:55:12;;;;;;;6.97;6.15;;;13.20;80.00;;;;;;5014449;28;20056;-63
2023/04/30 06:57:38;;;;;;;8.55;6.68;;;13.40;79.80;;;;;;5013337;28;20045;-63
2023/04/30 07:00:08;;;;;;;6.95;6.25;;;13.50;79.60;;;;;;5009989;28;20052;-63
2023/04/30 07:02:33;;;;;;;7.25;6.25;;;13.60;79.60;;;;;;5006115;28;20096;-63
2023/04/30 07:04:59;;;;;;;6.32;5.70;;;13.60;79.30;;;;;;5015814;28;20045;-63
2023/04/30 07:07:24;;;;;;;6.85;6.05;;;13.70;79.10;;;;;;5015157;28;20103;-63
2023/04/30 07:09:52;;;;;;;7.72;6.00;;;13.80;78.80;;;;;;5015116;28;20041;-63
2023/04/30 07:12:17;;;;;;;6.32;5.68;;;13.80;78.50;;;;;;5014966;28;20701;-63
2023/04/30 07:14:43;;;;;;;6.55;5.95;;;13.90;78.40;;;;;;5016796;28;20083;-63
2023/04/30 07:17:10;;;;;;;8.32;5.85;;;14.00;78.20;;;;;;5017912;28;20465;-63
2023/04/30 07:19:35;;;;;;;6.32;5.72;;;14.00;78.20;;;;;;5017185;28;20036;-63
2023/04/30 07:22:01;;;;;;;6.22;5.57;;;14.00;78.00;;;;;;5014090;28;20046;-63
2023/04/30 07:24:27;;;;;;;6.45;5.85;;;14.10;77.90;;;;;;5016756;28;20367;-60
2023/04/30 07:26:53;;;;;;;6.45;5.82;;;14.10;77.50;;;;;;5013565;28;20037;-62
2023/04/30 07:29:18;;;;;;;6.45;5.68;;;14.20;77.30;;;;;;5016353;28;20368;-62
2023/04/30 07:31:44;;;;;;;6.05;5.45;;;14.20;77.00;;;;;;5017659;28;20970;-63
2023/04/30 07:34:10;;;;;;;5.60;5.10;;;14.30;76.70;;;;;;5017076;28;20080;-63
2023/04/30 07:36:37;;;;;;;6.53;5.85;;;14.30;76.40;;;;;;5013796;28;20045;-63
2023/04/30 07:39:03;;;;;;;5.53;4.97;;;14.40;76.30;;;;;;5018161;28;20037;-63
2023/04/30 07:41:28;;;;;;;6.25;5.65;;;14.40;76.10;;;;;;5016786;28;20045;-63
2023/04/30 07:43:54;;;;;;;6.10;5.50;;;14.40;76.00;;;;;;5016614;28;20057;-63
2023/04/30 07:46:19;;;;;;;6.30;5.65;;;14.50;75.90;;;;;;5018437;28;20029;-62
2023/04/30 07:48:45;;;;;;;5.97;5.28;;;14.50;75.70;;;;;;5016005;28;20038;-63
2023/04/30 07:51:10;;;;;;;5.88;5.28;;;14.50;75.60;;;;;;5017314;28;20040;-63
2023/04/30 07:53:36;;;;;;;6.60;5.35;;;14.60;75.40;;;;;;5018340;28;20041;-63
2023/04/30 07:56:02;;;;;;;5.57;5.05;;;14.60;75.10;;;;;;5013997;28;20038;-64
2023/04/30 07:58:27;;;;;;;5.57;4.97;;;14.70;75.40;;;;;;5016786;28;20489;-63
2023/04/30 08:00:53;;;;;;;6.88;5.10;;;14.70;75.40;;;;;;5018549;28;20117;-63
2023/04/30 08:03:19;;;;;;;6.00;5.13;;;14.80;75.30;;;;;;5012705;28;20033;-63
2023/04/30 08:05:46;;;;;;;5.90;5.30;;;14.90;75.20;;;;;;5014716;28;20029;-63
2023/04/30 08:08:11;;;;;;;4.97;4.47;;;15.00;74.90;;;;;;5013839;28;20684;-64
2023/04/30 08:10:38;;;;;;;5.57;5.05;;;15.00;74.80;;;;;;5011496;28;20072;-64
2023/04/30 08:13:04;;;;;;;5.55;5.00;;;15.20;74.50;;;;;;5015895;28;20061;-64
2023/04/30 08:15:30;;;;;;;4.85;4.45;;;15.20;74.20;;;;;;5014114;28;20429;-63
2023/04/30 08:17:55;;;;;;;5.28;4.78;;;15.30;73.70;;;;;;5016106;28;20092;-64
2023/04/30 08:20:22;;;;;;;5.15;4.75;;;15.30;73.30;;;;;;5011316;28;20580;-63
2023/04/30 08:22:48;;;;;;;5.07;4.68;;;15.40;73.00;;;;;;5017375;28;20099;-63
2023/04/30 08:25:13;;;;;;;5.05;4.55;;;15.40;72.50;;;;;;5012875;28;20052;-63
2023/04/30 08:27:39;;;;;;;4.93;4.53;;;15.50;72.30;;;;;;5012577;28;20038;-63
2023/04/30 08:30:06;;;;;;;4.68;4.28;;;15.50;71.80;;;;;;5015202;28;20026;-64
2023/04/30 08:32:35;;;;;;;4.57;4.18;;;15.50;71.40;;;;;;5010795;28;20521;-64
2023/04/30 08:35:01;;;;;;;4.80;4.10;;;15.60;71.30;;;;;;5012872;28;20055;-63
2023/04/30 08:37:27;;;;;;;4.40;4.00;;;15.60;71.30;;;;;;5013218;28;20087;-63
2023/04/30 08:39:53;;;;;;;4.45;4.05;;;15.60;71.20;;;;;;5013867;28;20338;-64
2023/04/30 08:42:23;;;;;;;5.45;4.28;;;15.70;71.10;;;;;;5015201;28;20128;-63
2023/04/30 08:44:49;;;;;;;4.72;3.83;;;15.70;70.70;;;;;;5012650;28;20043;-64
2023/04/30 08:47:17;;;;;;;4.30;3.90;;;15.80;70.70;;;;;;5014502;28;20041;-64
2023/04/30 08:49:44;;;;;;;4.10;3.70;;;15.80;70.40;;;;;;5016561;28;20042;-63
2023/04/30 08:52:10;;;;;;;4.00;3.70;;;15.90;70.30;;;;;;5013456;28;20037;-63
2023/04/30 08:54:36;;;;;;;4.13;3.78;;;16.00;70.00;;;;;;5014900;28;20408;-63
2023/04/30 08:57:03;;;;;;;3.55;3.25;;;16.00;69.70;;;;;;5014419;28;20057;-64
2023/04/30 08:59:29;;;;;;;3.67;3.38;;;16.10;69.40;;;;;;5013513;28;20053;-65
2023/04/30 09:01:55;;;;;;;4.20;3.83;;;16.10;68.90;;;;;;5017440;28;20163;-65
2023/04/30 09:04:20;;;;;;;3.40;3.15;;;16.20;68.60;;;;;;5013996;28;20044;-64
2023/04/30 09:06:46;;;;;;;3.30;3.10;;;16.20;68.40;;;;;;5017689;28;20394;-65
2023/04/30 09:09:13;;;;;;;4.43;3.30;;;16.30;68.80;;;;;;5015462;28;20040;-63
2023/04/30 09:11:39;;;;;;;3.50;3.20;;;16.40;68.30;;;;;;5019154;28;20038;-63
2023/04/30 09:14:05;;;;;;;2.90;2.70;;;16.50;68.00;;;;;;5016591;28;20519;-64
2023/04/30 09:16:51;;;;;;;4.85;2.88;;;16.50;67.70;;;;;;5015414;28;20045;-64
2023/04/30 09:19:23;;;;;;;3.33;2.92;;;16.60;66.70;;;;;;5015280;28;20108;-64
2023/04/30 09:21:48;;;;;;;3.15;2.95;;;16.70;67.00;;;;;;5015510;28;20026;-64
2023/04/30 09:24:14;;;;;;;2.75;2.55;;;16.70;67.80;;;;;;5015142;28;20041;-64
2023/04/30 09:26:40;;;;;;;3.00;2.80;;;16.80;66.70;;;;;;5015886;28;20141;-64
2023/04/30 09:29:09;;;;;;;3.63;3.13;;;16.80;66.50;;;;;;5015701;28;20124;-64
2023/04/30 09:31:39;;;;;;;3.20;3.00;;;16.80;66.00;;;;;;5016797;28;20516;-64
2023/04/30 09:34:05;;;;;;;3.35;2.97;;;16.90;65.50;;;;;;5015654;28;20042;-64
2023/04/30 09:36:31;;;;;;;3.97;2.97;;;16.90;65.80;;;;;;5016213;28;20303;-64
2023/04/30 09:39:10;;;;;;;4.88;3.90;;;16.90;65.70;;;;;;5015601;28;20041;-64
2023/04/30 09:41:36;;;;;;;3.00;2.60;;;16.90;64.90;;;;;;5015745;28;20121;-64
2023/04/30 09:44:02;;;;;;;2.70;2.50;;;17.00;65.30;;;;;;5019173;28;20193;-64
2023/04/30 09:46:33;;;;;;;2.50;2.40;;;17.10;65.10;;;;;;5019522;28;20490;-64
2023/04/30 09:49:01;;;;;;;2.78;2.58;;;17.10;64.60;;;;;;5021294;28;20057;-64
2023/04/30 09:51:28;;;;;;;2.72;2.42;;;17.10;64.60;;;;;;5020637;28;20030;-64
2023/04/30 09:53:55;;;;;;;2.88;2.47;;;17.20;64.40;;;;;;5020083;28;21574;-64
2023/04/30 09:56:23;;;;;;;2.83;2.63;;;17.30;64.50;;;;;;5014525;28;20033;-64
2023/04/30 09:58:55;;;;;;;3.53;3.05;;;17.30;64.00;;;;;;5010134;28;20041;-64
2023/04/30 10:01:26;;;;;;;2.55;2.35;;;17.40;63.50;;;;;;5019200;28;20567;-64
2023/04/30 10:03:52;;;;;;;2.30;2.20;;;17.40;63.60;;;;;;5021015;28;20087;-63
2023/04/30 10:06:20;;;;;;;3.60;2.28;;;17.40;63.50;;;;;;5020092;28;20033;-63
2023/04/30 10:08:50;;;;;;;2.75;2.55;;;17.40;63.10;;;;;;5020387;28;20390;-64
2023/04/30 10:11:20;;;;;;;2.60;2.40;;;17.50;62.80;;;;;;5019216;28;20060;-64
2023/04/30 10:13:57;;;;;;;2.17;1.98;;;17.50;62.50;;;;;;5019699;28;20038;-64
2023/04/30 10:16:25;;;;;;;1.88;1.77;;;17.50;61.30;;;;;;5019532;28;20437;-63
2023/04/30 10:18:52;;;;;;;1.83;1.73;;;17.50;62.30;;;;;;5020303;28;20047;-64
2023/04/30 10:21:21;;;;;;;2.50;1.90;;;17.50;62.00;;;;;;5019377;28;20058;-64
2023/04/30 10:23:47;;;;;;;2.65;1.90;;;17.50;61.60;;;;;;5020237;28;20033;-64
2023/04/30 10:26:15;;;;;;;2.08;1.88;;;17.50;61.50;;;;;;5019214;28;20083;-64
2023/04/30 10:28:41;;;;;;;2.00;1.80;;;17.50;61.50;;;;;;5019543;28;20079;-64
2023/04/30 10:31:09;;;;;;;2.88;2.00;;;17.50;61.50;;;;;;5019190;28;20038;-64
2023/04/30 10:33:59;;;;;;;2.30;2.10;;;17.60;61.60;;;;;;5020657;28;20038;-64
2023/04/30 10:37:10;;;;;;;2.50;2.30;;;17.60;61.00;;;;;;5019010;28;20036;-64
2023/04/30 10:39:37;;;;;;;2.20;2.10;;;17.60;61.50;;;;;;4997811;28;20054;-64
2023/04/30 10:42:05;;;;;;;2.40;2.20;;;17.60;62.30;;;;;;5000338;28;20039;-64
2023/04/30 10:44:36;;;;;;;2.35;2.25;;;17.70;61.90;;;;;;4998329;28;20058;-64
2023/04/30 10:47:02;;;;;;;2.67;2.47;;;17.70;61.50;;;;;;4998793;28;20041;-64
2023/04/30 10:49:28;;;;;;;4.25;2.22;;;17.70;61.50;;;;;;4999964;28;20039;-64
2023/04/30 10:51:57;;;;;;;2.63;1.98;;;17.80;61.30;;;;;;4999861;28;20038;-63
2023/04/30 10:54:33;;;;;;;2.30;2.10;;;17.80;61.20;;;;;;4998954;28;20053;-64
2023/04/30 10:57:13;;;;;;;2.38;2.17;;;17.80;60.50;;;;;;4999156;28;20073;-64
2023/04/30 10:59:44;;;;;;;2.17;2.08;;;17.80;60.40;;;;;;4999513;28;20045;-64
2023/04/30 11:02:10;;;;;;;1.95;1.85;;;17.80;60.40;;;;;;5000462;28;20052;-63
2023/04/30 11:05:05;;;;;;;1.90;1.80;;;17.80;60.40;;;;;;4998167;28;20030;-64
2023/04/30 11:07:30;;;;;;;2.40;2.20;;;17.80;59.80;;;;;;4998007;28;20034;-64
2023/04/30 11:09:56;;;;;;;1.70;1.60;;;17.90;60.50;;;;;;4999325;28;20038;-64
2023/04/30 11:12:28;;;;;;;3.47;1.85;;;17.90;60.10;;;;;;4996633;28;20096;-64
2023/04/30 11:15:06;;;;;;;2.10;2.00;;;17.90;60.00;;;;;;5016515;28;20034;-64
2023/04/30 11:17:32;;;;;;;2.65;2.45;;;17.90;59.50;;;;;;5016989;28;20124;-64
2023/04/30 11:19:59;;;;;;;3.78;2.58;;;17.90;60.30;;;;;;5017883;28;20061;-64
2023/04/30 11:22:28;;;;;;;2.78;2.58;;;18.00;59.50;;;;;;5018136;28;20127;-64
2023/04/30 11:25:12;;;;;;;3.10;2.75;;;17.90;60.20;;;;;;5016919;28;20057;-64
2023/04/30 11:27:41;;;;;;;2.97;2.78;;;18.00;59.00;;;;;;5017103;28;20040;-63
2023/04/30 11:30:13;;;;;;;2.97;2.42;;;17.90;59.60;;;;;;5017483;28;20038;-64
2023/04/30 11:32:40;;;;;;;2.72;2.50;;;17.90;59.40;;;;;;5017579;28;20600;-64
2023/04/30 11:35:07;;;;;;;2.42;2.33;;;17.90;59.80;;;;;;5016191;28;20584;-64
2023/04/30 11:37:36;;;;;;;3.35;2.78;;;17.90;60.20;;;;;;5018229;28;20034;-64
2023/04/30 11:40:07;;;;;;;2.80;2.60;;;17.90;60.00;;;;;;5016929;28;20049;-64
2023/04/30 11:42:33;;;;;;;2.88;2.67;;;17.90;60.40;;;;;;5018870;28;20033;-64
2023/04/30 11:45:16;;;;;;;2.85;2.65;;;17.90;60.50;;;;;;5017166;28;20058;-64
2023/04/30 11:47:49;;;;;;;2.55;2.40;;;17.90;59.90;;;;;;5008360;28;20073;-64
2023/04/30 11:50:26;;;;;;;2.85;2.65;;;17.90;60.40;;;;;;4998175;28;20037;-64
2023/04/30 11:52:52;;;;;;;2.90;2.60;;;17.90;59.90;;;;;;4994121;28;20046;-64
2023/04/30 11:55:21;;;;;;;3.00;2.70;;;18.00;59.30;;;;;;4998003;28;20382;-63
2023/04/30 11:57:49;;;;;;;2.30;2.20;;;18.00;59.40;;;;;;4998243;28;20513;-63
2023/04/30 12:00:32;;;;;;;2.67;2.47;;;18.00;60.00;;;;;;4996081;28;20049;-63
2023/04/30 12:03:04;;;;;;;2.58;2.38;;;18.00;59.80;;;;;;4996116;28;20130;-63
2023/04/30 12:05:29;;;;;;;2.30;2.20;;;18.10;59.50;;;;;;4997852;28;20034;-63
2023/04/30 12:07:56;;;;;;;2.78;2.58;;;18.10;60.00;;;;;;4999078;28;20095;-63
2023/04/30 12:10:22;;;;;;;2.47;2.28;;;18.10;60.40;;;;;;4996308;28;20022;-63
2023/04/30 12:12:50;;;;;;;3.00;2.80;;;18.20;60.30;;;;;;4995607;28;20579;-64
2023/04/30 12:15:25;;;;;;;2.75;2.55;;;18.20;59.70;;;;;;4995283;28;20160;-64
2023/04/30 12:17:50;;;;;;;2.15;2.05;;;18.30;60.50;;;;;;4998949;28;20049;-64
2023/04/30 12:20:17;;;;;;;2.42;2.22;;;18.30;60.60;;;;;;4997764;28;20046;-64
2023/04/30 12:22:44;;;;;;;2.55;2.35;;;18.40;60.10;;;;;;4996784;28;20517;-64
2023/04/30 12:25:14;;;;;;;2.20;2.00;;;18.40;59.80;;;;;;4992988;28;21682;-64
2023/04/30 12:27:41;;;;;;;2.78;2.05;;;18.50;59.70;;;;;;4996116;28;20461;-63
2023/04/30 12:30:08;;;;;;;3.13;2.50;;;18.50;59.90;;;;;;4993933;28;20196;-63
2023/04/30 12:32:38;;;;;;;2.28;2.08;;;18.60;59.70;;;;;;4996446;28;20042;-63
2023/04/30 12:35:04;;;;;;;2.40;2.20;;;18.60;59.10;;;;;;4998082;28;20815;-63
2023/04/30 12:37:31;;;;;;;2.20;2.05;;;18.70;59.00;;;;;;4997991;28;20042;-63
2023/04/30 12:39:56;;;;;;;2.22;2.00;;;18.70;58.90;;;;;;5007567;28;20038;-64
2023/04/30 12:42:22;;;;;;;2.35;2.17;;;18.70;58.80;;;;;;5017081;28;20044;-64
2023/04/30 12:44:48;;;;;;;4.15;2.60;;;18.70;58.60;;;;;;4997263;28;20304;-64
2023/04/30 12:47:15;;;;;;;3.15;2.40;;;18.70;58.30;;;;;;4996993;28;20042;-64
2023/04/30 12:49:43;;;;;;;2.58;2.38;;;18.70;58.20;;;;;;4995949;28;20505;-64